This is the latest recevied weather packets stored in our database for station/object N5CNB-2. If no packets are shown the sender has not sent any weather packets the latest 10 day(s).
| Time | Temp. | Humidity | Pressure | Rain* | Wind** | Luminosity | Snow |
|---|---|---|---|---|---|---|---|
| 1777923956 | 27.22° C | 61% | 1013 hPa | 0 mm | - | - | - |
| 1777923061 | 27.22° C | 62% | 1013 hPa | 0 mm | - | - | - |
| 1777922152 | 27.78° C | 59% | 1013.1 hPa | 0 mm | - | - | - |
| 1777921259 | 26.67° C | 62% | 1013.3 hPa | 0 mm | - | - | - |
| 1777920364 | 26.67° C | 63% | 1013.4 hPa | 0 mm | - | - | - |
| 1777919458 | 26.11° C | 62% | 1013.6 hPa | 0 mm | - | - | - |
| 1777918559 | 25.56° C | 63% | 1013.8 hPa | 0 mm | - | - | - |
| 1777917658 | 25.56° C | 64% | 1014.3 hPa | 0 mm | - | - | - |
| 1777916755 | 25.56° C | 63% | 1014.3 hPa | 0 mm | - | - | - |
| 1777915853 | 25° C | 64% | 1014.4 hPa | 0 mm | - | - | - |
| 1777914966 | 25° C | 64% | 1014.7 hPa | 0 mm | - | - | - |
| 1777914060 | 24.44° C | 66% | 1014.8 hPa | 0 mm | - | - | - |
| 1777913161 | 24.44° C | 66% | 1014.9 hPa | 0 mm | - | - | - |
| 1777912257 | 24.44° C | 67% | 1015.2 hPa | 0 mm | - | - | - |
| 1777911355 | 23.89° C | 66% | 1015.2 hPa | 0 mm | - | - | - |
| 1777910461 | 23.33° C | 68% | 1015.3 hPa | 0 mm | - | - | - |
| 1777909557 | 22.78° C | 68% | 1015.5 hPa | 0 mm | - | - | - |
| 1777908657 | 23.33° C | 68% | 1015.8 hPa | 0 mm | - | - | - |
| 1777907763 | 22.78° C | 70% | 1015.7 hPa | 0 mm | - | - | - |
| 1777906857 | 22.78° C | 71% | 1015.8 hPa | 0 mm | - | - | - |
| 1777905969 | 22.22° C | 71% | 1015.8 hPa | 0 mm | - | - | - |
| 1777905078 | 21.67° C | 72% | 1015.8 hPa | 0 mm | - | - | - |
| 1777904158 | 20.56° C | 74% | 1015.8 hPa | 0 mm | - | - | - |
| 1777903258 | 20.56° C | 72% | 1015.8 hPa | 0 mm | - | - | - |
| 1777902369 | 20° C | 73% | 1015.9 hPa | 0 mm | - | - | - |
* Rain latest hour (hover to see other rain measurements)
** Current wind speed in m/s (hover to see current wind gust speed)